Boston, Massachusetts
Traffic Map
Current Weather Conditions
Boston, Massachusetts
Clear
Clear

Feels Like: -1°
Wind Chill: -1° Ceiling: Unl
Heat Index: Visibility: 10mi
Dew Point: -2° Wind: 14mph
Humidity: 68% Direction: 260° (W)
Pressure: 29.7in Gusts: 23mph
Raw Report DataKBOS 310754Z 26012G20KT 10SM CLR 03/M02 A2970 RMK AO2 SLP055 T00331022
Traffic Incident Summary
Active as of:
Severity:
Category:
InformationThere was an issue retrieving the traffic information for this location. Please try a different location or try again shortly.
Advertisements
Track Severe Weather on mobile